createdAt,value
2023-01-25T00:01:10.663Z,88.27
2023-01-25T00:03:39.414Z,88.54
2023-01-25T00:06:08.141Z,88.30
2023-01-25T00:08:38.544Z,88.38
2023-01-25T00:11:06.784Z,88.74
2023-01-25T00:13:34.907Z,88.59
2023-01-25T00:16:03.450Z,88.97
2023-01-25T00:18:31.653Z,89.04
2023-01-25T00:21:02.504Z,88.66
2023-01-25T00:23:30.465Z,88.60
2023-01-25T00:26:00.355Z,88.24
2023-01-25T00:28:28.480Z,88.58
2023-01-25T00:31:01.288Z,88.33
2023-01-25T00:33:41.684Z,88.53
2023-01-25T00:36:33.659Z,88.79
2023-01-25T00:39:01.768Z,88.70
2023-01-25T00:41:31.128Z,88.88
2023-01-25T00:43:59.841Z,88.63
2023-01-25T00:46:27.866Z,88.69
2023-01-25T00:48:56.143Z,88.36
2023-01-25T00:51:26.493Z,88.85
2023-01-25T00:53:54.698Z,88.51
2023-01-25T00:56:22.809Z,88.69
2023-01-25T00:58:52.178Z,89.04
2023-01-25T01:01:20.542Z,88.13
2023-01-25T01:03:48.645Z,88.98
2023-01-25T01:06:16.617Z,88.68
2023-01-25T01:08:44.506Z,88.54
2023-01-25T01:11:14.056Z,88.79
2023-01-25T01:13:42.301Z,88.54
2023-01-25T01:16:13.901Z,88.49
2023-01-25T01:18:44.208Z,88.81
2023-01-25T01:21:13.743Z,88.12
2023-01-25T01:23:42.159Z,88.88
2023-01-25T01:26:13.634Z,88.16
2023-01-25T01:28:43.211Z,88.69
2023-01-25T01:31:17.493Z,89.05
2023-01-25T01:33:45.570Z,88.57
2023-01-25T01:36:16.559Z,88.78
2023-01-25T01:38:44.988Z,88.81
2023-01-25T01:41:15.866Z,88.25
2023-01-25T01:43:45.606Z,88.78
2023-01-25T01:46:18.761Z,88.49
2023-01-25T01:48:53.787Z,88.37
2023-01-25T01:51:25.749Z,88.71
2023-01-25T01:53:59.014Z,89.08
2023-01-25T01:56:32.636Z,88.72
2023-01-25T01:59:01.916Z,88.36
2023-01-25T02:01:31.364Z,88.55
2023-01-25T02:04:03.276Z,88.53
2023-01-25T02:06:36.115Z,88.65
2023-01-25T02:09:04.295Z,89.01
2023-01-25T02:11:33.948Z,88.44
2023-01-25T02:14:03.890Z,88.91
2023-01-25T02:16:33.584Z,88.71
2023-01-25T02:19:03.734Z,88.59
2023-01-25T02:21:40.358Z,88.75
2023-01-25T02:24:13.640Z,89.05
2023-01-25T02:26:43.285Z,88.56
2023-01-25T02:29:12.121Z,88.29
2023-01-25T02:31:40.381Z,88.76
2023-01-25T02:34:08.313Z,89.08
2023-01-25T02:36:37.061Z,88.73
2023-01-25T02:39:08.507Z,88.47
2023-01-25T02:41:37.798Z,89.04
2023-01-25T02:44:11.129Z,88.70
2023-01-25T02:46:40.547Z,88.50
2023-01-25T02:49:11.281Z,88.23
2023-01-25T02:51:40.874Z,88.95
2023-01-25T02:54:11.009Z,88.85
2023-01-25T02:56:40.760Z,88.96
2023-01-25T02:59:13.312Z,88.64
2023-01-25T03:01:42.797Z,88.38
2023-01-25T03:04:10.843Z,88.46
2023-01-25T03:06:39.825Z,88.76
2023-01-25T03:09:09.967Z,88.52
2023-01-25T03:11:38.356Z,88.87
2023-01-25T03:14:06.379Z,88.40
2023-01-25T03:16:35.766Z,88.70
2023-01-25T03:19:03.796Z,88.32
2023-01-25T03:21:31.862Z,88.83
2023-01-25T03:24:01.948Z,89.10
2023-01-25T03:26:30.775Z,88.42
2023-01-25T03:28:58.790Z,89.13
2023-01-25T03:31:26.873Z,89.18
2023-01-25T03:33:56.153Z,88.49
2023-01-25T03:36:24.379Z,88.53
2023-01-25T03:38:52.405Z,89.19
2023-01-25T03:41:20.230Z,88.63
2023-01-25T03:43:48.049Z,89.07
2023-01-25T03:46:15.994Z,89.17
2023-01-25T03:48:43.875Z,88.81
2023-01-25T03:51:14.752Z,89.01
2023-01-25T03:53:42.669Z,88.48
2023-01-25T03:56:17.578Z,88.85
2023-01-25T03:58:45.756Z,88.77
2023-01-25T04:01:14.257Z,88.84
2023-01-25T04:03:42.326Z,88.90
2023-01-25T04:06:10.314Z,88.73
2023-01-25T04:08:39.800Z,89.13
2023-01-25T04:11:09.499Z,88.57
2023-01-25T04:13:38.478Z,88.86
2023-01-25T04:16:07.731Z,88.71
2023-01-25T04:18:35.660Z,88.83
2023-01-25T04:21:03.571Z,88.91
2023-01-25T04:23:31.699Z,89.11
2023-01-25T04:26:03.252Z,89.06
2023-01-25T04:28:31.267Z,88.74
2023-01-25T04:30:59.545Z,88.88
2023-01-25T04:33:28.245Z,88.89
2023-01-25T04:35:56.181Z,88.95
2023-01-25T04:38:24.033Z,89.21
2023-01-25T04:40:52.002Z,89.31
2023-01-25T04:43:21.946Z,89.24
2023-01-25T04:45:50.040Z,88.58
2023-01-25T04:48:18.139Z,89.16
2023-01-25T04:50:46.670Z,88.60
2023-01-25T04:53:14.947Z,88.61
2023-01-25T04:55:46.463Z,88.90
2023-01-25T04:58:14.872Z,89.13
2023-01-25T05:00:44.114Z,89.16
2023-01-25T05:03:11.972Z,89.13
2023-01-25T05:05:39.821Z,88.56
2023-01-25T05:08:07.700Z,88.85
2023-01-25T05:10:35.539Z,88.58
2023-01-25T05:13:03.606Z,88.53
2023-01-25T05:15:31.525Z,88.58
2023-01-25T05:18:00.803Z,89.00
2023-01-25T05:20:29.549Z,88.99
2023-01-25T05:22:57.380Z,88.62
2023-01-25T05:25:42.965Z,89.08
2023-01-25T05:28:10.947Z,88.60
2023-01-25T05:30:38.989Z,89.06
2023-01-25T05:33:08.448Z,88.46
2023-01-25T05:35:36.372Z,88.60
2023-01-25T05:38:04.276Z,88.82
2023-01-25T05:40:32.252Z,88.50
2023-01-25T05:43:00.830Z,88.50
2023-01-25T05:45:30.086Z,88.76
2023-01-25T05:47:59.998Z,89.19
2023-01-25T05:50:29.598Z,88.89
2023-01-25T05:52:57.464Z,88.49
2023-01-25T05:55:27.816Z,89.14
2023-01-25T05:57:57.042Z,88.62
2023-01-25T06:00:25.064Z,88.64
2023-01-25T06:02:53.016Z,88.71
2023-01-25T06:05:20.970Z,88.88
2023-01-25T06:07:50.351Z,88.50
2023-01-25T06:10:18.202Z,89.22
2023-01-25T06:12:46.144Z,88.60
2023-01-25T06:15:13.974Z,89.19
2023-01-25T06:17:41.917Z,88.62
2023-01-25T06:20:11.095Z,88.98
2023-01-25T06:22:39.050Z,88.46
2023-01-25T06:25:09.987Z,89.00
2023-01-25T06:27:37.932Z,88.78
2023-01-25T06:30:07.787Z,88.93
2023-01-25T06:32:35.731Z,89.21
2023-01-25T06:35:03.624Z,88.64
2023-01-25T06:37:31.523Z,88.78
2023-01-25T06:39:59.383Z,88.82
2023-01-25T06:42:28.752Z,88.65
2023-01-25T06:44:56.669Z,89.19
2023-01-25T06:47:24.694Z,89.01
2023-01-25T06:49:52.562Z,88.68
2023-01-25T06:52:20.421Z,88.52
2023-01-25T06:54:48.323Z,89.17
2023-01-25T06:57:16.313Z,88.54
2023-01-25T06:59:45.713Z,89.00
2023-01-25T07:02:16.223Z,89.28
2023-01-25T07:04:44.050Z,89.24
2023-01-25T07:07:11.878Z,88.53
2023-01-25T07:09:39.788Z,89.06
2023-01-25T07:12:08.317Z,88.79
2023-01-25T07:14:36.336Z,88.63
2023-01-25T07:17:05.707Z,88.86
2023-01-25T07:19:33.533Z,88.66
2023-01-25T07:22:01.365Z,89.38
2023-01-25T07:24:29.903Z,88.77
2023-01-25T07:26:58.027Z,88.71
2023-01-25T07:29:25.880Z,89.27
2023-01-25T07:31:53.872Z,88.45
2023-01-25T07:34:23.395Z,89.04
2023-01-25T07:36:51.336Z,89.16
2023-01-25T07:39:19.348Z,89.32
2023-01-25T07:41:47.256Z,88.93
2023-01-25T07:44:15.307Z,89.34
2023-01-25T07:46:43.484Z,89.15
2023-01-25T07:49:11.253Z,89.23
2023-01-25T07:51:40.549Z,89.25
2023-01-25T07:54:10.994Z,88.62
2023-01-25T07:56:40.624Z,88.79
2023-01-25T07:59:09.302Z,88.74
2023-01-25T08:01:37.640Z,89.10
2023-01-25T08:04:06.300Z,89.18
2023-01-25T08:06:39.256Z,89.32
2023-01-25T08:09:12.121Z,89.12
2023-01-25T08:11:40.295Z,89.14
2023-01-25T08:14:09.206Z,89.10
2023-01-25T08:16:37.144Z,89.46
2023-01-25T08:19:05.737Z,89.21
2023-01-25T08:21:35.295Z,89.36
2023-01-25T08:24:05.020Z,89.01
2023-01-25T08:26:35.671Z,88.63
2023-01-25T08:29:03.851Z,88.79
2023-01-25T08:31:33.841Z,89.28
2023-01-25T08:34:02.579Z,88.73
2023-01-25T08:36:30.799Z,89.15
2023-01-25T08:39:00.969Z,88.78
2023-01-25T08:41:30.709Z,88.67
2023-01-25T08:44:00.336Z,89.02
2023-01-25T08:46:31.587Z,88.93
2023-01-25T08:49:01.541Z,89.11
2023-01-25T08:51:31.316Z,89.21
2023-01-25T08:54:02.634Z,89.03
2023-01-25T08:56:30.329Z,89.15
2023-01-25T08:58:58.073Z,89.09
2023-01-25T09:01:27.193Z,89.03
2023-01-25T09:03:56.061Z,89.06
2023-01-25T09:06:23.886Z,88.77
2023-01-25T09:08:51.744Z,88.65
2023-01-25T09:11:21.180Z,88.93
2023-01-25T09:13:49.518Z,88.94
2023-01-25T09:16:22.741Z,88.75
2023-01-25T09:18:51.867Z,88.87
2023-01-25T09:21:20.464Z,88.80
2023-01-25T09:23:51.379Z,88.92
2023-01-25T09:26:32.528Z,89.28
2023-01-25T09:29:00.675Z,89.19
2023-01-25T09:31:29.551Z,88.94
2023-01-25T09:33:59.062Z,89.16
2023-01-25T09:36:27.168Z,88.65
2023-01-25T09:38:57.533Z,88.79
2023-01-25T09:41:43.037Z,89.17
2023-01-25T09:44:28.297Z,89.30
2023-01-25T09:46:59.688Z,88.78
2023-01-25T09:49:52.343Z,88.91
2023-01-25T09:52:40.283Z,88.85
2023-01-25T09:55:14.956Z,88.95
2023-01-25T09:57:48.161Z,89.00
2023-01-25T10:00:20.790Z,88.89
2023-01-25T10:02:54.138Z,89.15
2023-01-25T10:05:28.232Z,88.86
2023-01-25T10:07:59.356Z,88.98
2023-01-25T10:10:34.766Z,89.04
2023-01-25T10:13:04.119Z,88.85
2023-01-25T10:15:37.140Z,88.75
2023-01-25T10:18:18.184Z,88.80
2023-01-25T10:20:53.217Z,88.91
2023-01-25T10:23:53.910Z,89.15
2023-01-25T10:26:26.601Z,89.06
2023-01-25T10:29:03.611Z,89.18
2023-01-25T10:31:40.780Z,88.85
2023-01-25T10:34:19.443Z,88.76
2023-01-25T10:36:52.408Z,88.63
2023-01-25T10:39:21.191Z,89.10
2023-01-25T10:41:52.372Z,89.04
2023-01-25T10:44:24.490Z,88.79
2023-01-25T10:46:58.477Z,88.82
2023-01-25T10:49:30.564Z,88.52
2023-01-25T10:52:14.249Z,88.65
2023-01-25T10:54:42.224Z,89.03
2023-01-25T10:57:15.639Z,88.67
2023-01-25T10:59:47.006Z,88.94
2023-01-25T11:02:41.088Z,88.90
2023-01-25T11:05:30.108Z,88.92
2023-01-25T11:08:00.885Z,89.01
2023-01-25T11:10:31.740Z,88.77
2023-01-25T11:13:22.792Z,88.85
2023-01-25T11:15:52.930Z,88.97
2023-01-25T11:18:24.143Z,88.70
2023-01-25T11:21:07.030Z,88.94
2023-01-25T11:23:36.294Z,88.93
2023-01-25T11:26:15.964Z,88.82
2023-01-25T11:28:44.596Z,88.55
2023-01-25T11:31:14.788Z,89.06
2023-01-25T11:33:43.286Z,88.71
2023-01-25T11:36:20.983Z,88.93
2023-01-25T11:39:01.076Z,88.80
2023-01-25T11:41:38.235Z,89.14
2023-01-25T11:44:40.808Z,88.46
2023-01-25T11:47:18.851Z,88.48
2023-01-25T11:49:58.606Z,88.50
2023-01-25T11:52:36.290Z,88.45
2023-01-25T11:55:21.896Z,88.48
2023-01-25T11:58:08.058Z,88.57
2023-01-25T12:00:57.642Z,89.03
2023-01-25T12:04:10.964Z,89.05
2023-01-25T12:06:51.116Z,88.60
2023-01-25T12:09:31.699Z,88.59
2023-01-25T12:12:12.137Z,88.47
2023-01-25T12:14:55.693Z,88.50
2023-01-25T12:17:32.833Z,88.43
2023-01-25T12:20:23.874Z,88.25
2023-01-25T12:23:06.775Z,88.98
2023-01-25T12:25:44.394Z,88.93
2023-01-25T12:28:20.800Z,88.55
2023-01-25T12:30:54.874Z,89.02
2023-01-25T12:33:28.847Z,88.90
2023-01-25T12:36:02.928Z,88.82
2023-01-25T12:38:38.057Z,88.52
2023-01-25T12:41:15.461Z,88.72
2023-01-25T12:43:51.573Z,88.54
2023-01-25T12:46:27.615Z,88.99
2023-01-25T12:49:00.718Z,88.36
2023-01-25T12:51:35.555Z,88.49
2023-01-25T12:54:13.007Z,89.02
2023-01-25T12:56:47.830Z,88.80
2023-01-25T12:59:25.758Z,88.52
2023-01-25T13:01:57.929Z,88.39
2023-01-25T13:04:51.047Z,88.87
2023-01-25T13:07:25.672Z,88.51
2023-01-25T13:10:00.510Z,88.48
2023-01-25T13:12:28.419Z,88.65
2023-01-25T13:14:57.750Z,88.36
2023-01-25T13:17:35.482Z,88.39
2023-01-25T13:20:06.564Z,88.37
2023-01-25T13:22:59.102Z,88.40
2023-01-25T13:25:27.827Z,88.90
2023-01-25T13:28:49.634Z,88.46
2023-01-25T13:31:52.051Z,88.50
2023-01-25T13:34:54.317Z,88.74
2023-01-25T13:37:24.960Z,88.11
2023-01-25T13:39:54.980Z,88.52
2023-01-25T13:42:25.415Z,88.66
2023-01-25T13:44:57.096Z,88.46
2023-01-25T13:47:30.075Z,88.87
2023-01-25T13:50:03.669Z,88.84
2023-01-25T13:52:32.343Z,88.37
2023-01-25T13:55:01.008Z,88.39
2023-01-25T13:57:30.760Z,88.63
2023-01-25T14:00:11.704Z,88.39
2023-01-25T14:02:42.984Z,88.78
2023-01-25T14:05:19.718Z,89.04
2023-01-25T14:07:50.211Z,89.14
2023-01-25T14:10:24.445Z,88.61
2023-01-25T14:12:55.625Z,88.55
2023-01-25T14:15:26.255Z,88.31
2023-01-25T14:18:13.530Z,88.81
2023-01-25T14:20:42.495Z,88.87
2023-01-25T14:23:23.094Z,88.61
2023-01-25T14:25:51.563Z,88.45
2023-01-25T14:28:19.820Z,88.67
2023-01-25T14:30:53.024Z,88.30
2023-01-25T14:33:27.106Z,88.24
2023-01-25T14:36:01.601Z,88.78
2023-01-25T14:38:34.963Z,89.02
2023-01-25T14:41:10.476Z,88.75
2023-01-25T14:43:39.707Z,88.99
2023-01-25T14:46:28.248Z,88.25
2023-01-25T14:49:25.329Z,88.18
2023-01-25T14:52:00.447Z,88.25
2023-01-25T14:54:32.260Z,88.26
2023-01-25T14:57:03.355Z,88.36
2023-01-25T14:59:36.097Z,88.71
2023-01-25T15:02:16.838Z,88.28
2023-01-25T15:04:55.601Z,88.57
2023-01-25T15:07:43.688Z,88.73
2023-01-25T15:10:20.681Z,88.55
2023-01-25T15:13:21.256Z,88.83
2023-01-25T15:15:54.727Z,88.17
2023-01-25T15:18:45.368Z,88.37
2023-01-25T15:21:16.508Z,88.46
2023-01-25T15:23:45.919Z,88.01
2023-01-25T15:26:16.440Z,88.28
2023-01-25T15:28:44.362Z,88.18
2023-01-25T15:31:17.968Z,88.01
2023-01-25T15:33:46.390Z,88.59
2023-01-25T15:36:17.680Z,88.27
2023-01-25T15:38:45.564Z,88.47
2023-01-25T15:41:14.228Z,88.36
2023-01-25T15:43:43.213Z,88.36
2023-01-25T15:46:17.815Z,88.08
2023-01-25T15:48:47.460Z,88.35
2023-01-25T15:51:16.787Z,88.63
2023-01-25T15:53:44.713Z,88.55
2023-01-25T15:56:15.713Z,88.59
2023-01-25T15:58:47.000Z,88.48
2023-01-25T16:01:15.079Z,88.71
2023-01-25T16:03:42.937Z,88.18
2023-01-25T16:06:33.088Z,88.58
2023-01-25T16:09:01.817Z,88.22
2023-01-25T16:11:29.701Z,88.62
2023-01-25T16:13:58.027Z,88.21
2023-01-25T16:16:27.166Z,88.68
2023-01-25T16:18:55.180Z,88.51
2023-01-25T16:21:25.735Z,88.82
2023-01-25T16:23:53.699Z,88.55
2023-01-25T16:26:24.637Z,88.44
2023-01-25T16:28:52.794Z,88.27
2023-01-25T16:31:31.866Z,88.03
2023-01-25T16:34:00.938Z,88.31
2023-01-25T16:36:31.462Z,88.55
2023-01-25T16:39:09.878Z,88.21
2023-01-25T16:41:38.480Z,88.65
2023-01-25T16:44:06.396Z,88.32
2023-01-25T16:46:34.919Z,88.35
2023-01-25T16:49:04.786Z,88.42
2023-01-25T16:51:34.571Z,88.72
2023-01-25T16:54:02.563Z,88.81
2023-01-25T16:56:32.174Z,88.41
2023-01-25T16:59:02.943Z,88.24
2023-01-25T17:01:31.198Z,88.30
2023-01-25T17:03:59.364Z,87.94
2023-01-25T17:06:29.477Z,87.88
2023-01-25T17:09:02.149Z,88.01
2023-01-25T17:11:33.218Z,87.84
2023-01-25T17:14:03.039Z,88.30
2023-01-25T17:16:31.785Z,87.93
2023-01-25T17:19:01.292Z,88.25
2023-01-25T17:21:29.783Z,88.53
2023-01-25T17:24:00.206Z,88.50
2023-01-25T17:26:29.754Z,88.06
2023-01-25T17:28:59.203Z,88.61
2023-01-25T17:31:29.378Z,88.74
2023-01-25T17:33:58.060Z,87.99
2023-01-25T17:36:26.217Z,88.63
2023-01-25T17:38:54.728Z,87.80
2023-01-25T17:41:25.280Z,88.58
2023-01-25T17:43:53.414Z,88.66
2023-01-25T17:46:25.412Z,88.08
2023-01-25T17:48:53.552Z,88.58
2023-01-25T17:51:24.740Z,88.26
2023-01-25T17:53:52.751Z,88.52
2023-01-25T17:56:20.932Z,88.48
2023-01-25T17:58:50.035Z,87.98
2023-01-25T18:01:19.865Z,88.44
2023-01-25T18:03:50.309Z,87.99
2023-01-25T18:06:20.164Z,88.59
2023-01-25T18:08:49.963Z,88.17
2023-01-25T18:11:20.396Z,88.38
2023-01-25T18:13:51.250Z,87.79
2023-01-25T18:16:21.576Z,88.34
2023-01-25T18:18:50.670Z,87.83
2023-01-25T18:21:24.212Z,88.49
2023-01-25T18:23:53.708Z,88.51
2023-01-25T18:26:25.037Z,88.29
2023-01-25T18:28:59.178Z,88.48
2023-01-25T18:31:27.732Z,88.58
2023-01-25T18:33:55.627Z,87.75
2023-01-25T18:36:23.370Z,88.60
2023-01-25T18:38:51.161Z,88.09
2023-01-25T18:41:18.992Z,87.95
2023-01-25T18:43:49.724Z,87.87
2023-01-25T18:46:18.930Z,88.22
2023-01-25T18:48:47.235Z,88.49
2023-01-25T18:51:18.409Z,88.46
2023-01-25T18:53:47.614Z,88.08
2023-01-25T18:56:17.407Z,87.90
2023-01-25T18:58:46.352Z,88.34
2023-01-25T19:01:16.263Z,88.17
2023-01-25T19:03:49.745Z,88.03
2023-01-25T19:06:18.547Z,87.97
2023-01-25T19:08:51.839Z,88.46
2023-01-25T19:11:22.008Z,87.71
2023-01-25T19:13:50.520Z,88.53
2023-01-25T19:16:20.636Z,87.63
2023-01-25T19:18:52.107Z,88.14
2023-01-25T19:21:21.899Z,88.05
2023-01-25T19:23:49.834Z,88.21
2023-01-25T19:26:20.145Z,87.79
2023-01-25T19:28:48.912Z,88.43
2023-01-25T19:31:18.988Z,88.54
2023-01-25T19:33:47.606Z,88.54
2023-01-25T19:36:19.289Z,88.34
2023-01-25T19:38:48.924Z,87.64
2023-01-25T19:41:18.970Z,88.39
2023-01-25T19:43:47.153Z,87.96
2023-01-25T19:46:16.788Z,88.18
2023-01-25T19:48:47.670Z,88.16
2023-01-25T19:51:19.828Z,88.13
2023-01-25T19:53:54.404Z,87.67
2023-01-25T19:56:22.616Z,88.01
2023-01-25T19:58:50.846Z,87.76
2023-01-25T20:01:20.701Z,87.86
2023-01-25T20:03:49.542Z,88.34
2023-01-25T20:06:20.828Z,88.02
2023-01-25T20:08:49.013Z,88.00
2023-01-25T20:11:19.629Z,87.86
2023-01-25T20:13:48.506Z,87.92
2023-01-25T20:16:17.668Z,88.15
2023-01-25T20:18:45.976Z,88.17
2023-01-25T20:21:15.493Z,87.52
2023-01-25T20:23:46.681Z,87.84
2023-01-25T20:26:17.738Z,87.70
2023-01-25T20:28:47.707Z,88.45
2023-01-25T20:31:21.160Z,88.18
2023-01-25T20:33:49.275Z,87.96
2023-01-25T20:36:17.757Z,87.73
2023-01-25T20:38:47.464Z,87.86
2023-01-25T20:41:18.282Z,87.89
2023-01-25T20:43:50.477Z,88.06
2023-01-25T20:46:19.656Z,87.50
2023-01-25T20:48:47.915Z,88.31
2023-01-25T20:51:17.321Z,88.14
2023-01-25T20:53:47.489Z,87.88
2023-01-25T20:56:16.252Z,87.97
2023-01-25T20:58:45.913Z,88.33
2023-01-25T21:01:15.104Z,87.93
2023-01-25T21:03:42.965Z,88.29
2023-01-25T21:06:12.167Z,87.94
2023-01-25T21:08:40.448Z,87.90
2023-01-25T21:11:10.198Z,88.05
2023-01-25T21:13:38.580Z,88.24
2023-01-25T21:16:10.370Z,87.69
2023-01-25T21:18:39.453Z,87.70
2023-01-25T21:21:08.857Z,87.84
2023-01-25T21:23:38.543Z,87.76
2023-01-25T21:26:07.472Z,87.90
2023-01-25T21:28:36.629Z,88.25
2023-01-25T21:31:12.053Z,88.01
2023-01-25T21:33:40.316Z,87.93
2023-01-25T21:36:11.543Z,87.80
2023-01-25T21:38:40.252Z,87.76
2023-01-25T21:41:11.975Z,87.84
2023-01-25T21:43:58.840Z,87.58
2023-01-25T21:46:28.567Z,87.75
2023-01-25T21:49:15.734Z,87.61
2023-01-25T21:51:49.559Z,87.53
2023-01-25T21:54:18.521Z,88.39
2023-01-25T21:56:47.540Z,87.69
2023-01-25T21:59:17.018Z,87.78
2023-01-25T22:01:45.877Z,88.33
2023-01-25T22:04:15.282Z,88.05
2023-01-25T22:06:43.855Z,87.85
2023-01-25T22:09:13.784Z,87.91
2023-01-25T22:11:41.716Z,88.13
2023-01-25T22:14:09.709Z,88.03
2023-01-25T22:16:38.795Z,87.78
2023-01-25T22:19:06.571Z,88.28
2023-01-25T22:21:34.623Z,87.53
2023-01-25T22:24:04.658Z,87.49
2023-01-25T22:26:43.784Z,87.60
2023-01-25T22:29:13.685Z,88.22
2023-01-25T22:31:43.944Z,87.57
2023-01-25T22:34:11.970Z,87.51
2023-01-25T22:36:39.698Z,88.04
2023-01-25T22:39:07.864Z,87.71
2023-01-25T22:41:38.468Z,87.61
2023-01-25T22:44:06.402Z,88.41
2023-01-25T22:46:34.604Z,87.85
2023-01-25T22:49:04.736Z,87.69
2023-01-25T22:51:33.301Z,87.62
2023-01-25T22:54:01.547Z,87.61
2023-01-25T22:56:32.062Z,87.42
2023-01-25T22:59:00.674Z,87.86
2023-01-25T23:01:29.909Z,88.16
2023-01-25T23:03:58.288Z,88.02
2023-01-25T23:06:29.429Z,87.98
2023-01-25T23:08:59.808Z,87.42
2023-01-25T23:11:35.812Z,88.16
2023-01-25T23:14:21.997Z,88.19
2023-01-25T23:16:51.381Z,87.59
2023-01-25T23:19:18.396Z,87.85
2023-01-25T23:21:47.479Z,87.95
2023-01-25T23:24:15.373Z,88.35
2023-01-25T23:26:46.356Z,87.56
2023-01-25T23:29:14.629Z,88.31
2023-01-25T23:31:42.658Z,87.89
2023-01-25T23:34:12.692Z,87.61
2023-01-25T23:36:42.275Z,88.23
2023-01-25T23:39:14.654Z,87.55
2023-01-25T23:41:42.362Z,88.39
2023-01-25T23:44:10.133Z,88.16
2023-01-25T23:46:37.986Z,87.59
2023-01-25T23:49:05.769Z,87.97
2023-01-25T23:51:33.523Z,87.93
2023-01-25T23:54:01.342Z,88.02
2023-01-25T23:56:30.511Z,87.54
2023-01-25T23:58:58.579Z,88.07
